sensor_id;sensor_type;location;lat;lon;timestamp;pressure;altitude;pressure_sealevel;temperature;humidity
73821;BME280;62150;43.582;1.456;2023-03-01T06:30:01;100411.19;;;-0.22;100.00
73821;BME280;62150;43.582;1.456;2023-03-01T06:32:29;100407.81;;;-0.23;100.00
73821;BME280;62150;43.582;1.456;2023-03-01T06:34:57;100410.59;;;0.08;100.00
73821;BME280;62150;43.582;1.456;2023-03-01T06:37:25;100406.16;;;-0.21;100.00
73821;BME280;62150;43.582;1.456;2023-03-01T06:39:52;100406.09;;;-0.27;100.00
73821;BME280;62150;43.582;1.456;2023-03-01T06:42:20;100413.00;;;-0.08;100.00
73821;BME280;62150;43.582;1.456;2023-03-01T06:44:48;100403.66;;;-0.16;100.00
73821;BME280;62150;43.582;1.456;2023-03-01T06:47:16;100400.44;;;0.02;100.00
73821;BME280;62150;43.582;1.456;2023-03-01T06:49:44;100407.31;;;0.18;100.00
73821;BME280;62150;43.582;1.456;2023-03-01T06:52:11;100406.53;;;0.28;100.00
73821;BME280;62150;43.582;1.456;2023-03-01T06:54:39;100404.03;;;0.29;100.00
73821;BME280;62150;43.582;1.456;2023-03-01T06:57:06;100403.91;;;0.16;100.00
73821;BME280;62150;43.582;1.456;2023-03-01T06:59:34;100405.03;;;0.57;100.00
73821;BME280;62150;43.582;1.456;2023-03-01T07:02:01;100420.13;;;0.48;100.00
73821;BME280;62150;43.582;1.456;2023-03-01T07:04:30;100413.34;;;0.43;100.00
73821;BME280;62150;43.582;1.456;2023-03-01T07:06:58;100410.78;;;0.35;100.00
73821;BME280;62150;43.582;1.456;2023-03-01T07:09:25;100409.03;;;0.23;100.00
73821;BME280;62150;43.582;1.456;2023-03-01T07:11:53;100404.78;;;0.19;100.00
73821;BME280;62150;43.582;1.456;2023-03-01T07:14:20;100409.00;;;0.19;100.00
73821;BME280;62150;43.582;1.456;2023-03-01T07:16:50;100412.59;;;0.54;100.00
73821;BME280;62150;43.582;1.456;2023-03-01T07:19:18;100420.22;;;0.60;100.00
73821;BME280;62150;43.582;1.456;2023-03-01T07:21:47;100415.88;;;0.43;100.00
73821;BME280;62150;43.582;1.456;2023-03-01T07:24:14;100414.13;;;0.29;100.00
73821;BME280;62150;43.582;1.456;2023-03-01T07:26:42;100414.91;;;0.21;100.00
73821;BME280;62150;43.582;1.456;2023-03-01T07:29:10;100420.63;;;-0.05;100.00
73821;BME280;62150;43.582;1.456;2023-03-01T07:31:38;100414.97;;;0.28;100.00
73821;BME280;62150;43.582;1.456;2023-03-01T07:34:05;100420.94;;;0.41;100.00
73821;BME280;62150;43.582;1.456;2023-03-01T07:36:33;100421.88;;;0.55;100.00
73821;BME280;62150;43.582;1.456;2023-03-01T07:39:02;100435.06;;;0.15;100.00
73821;BME280;62150;43.582;1.456;2023-03-01T07:41:30;100425.84;;;0.18;100.00
73821;BME280;62150;43.582;1.456;2023-03-01T07:43:57;100429.88;;;-0.04;100.00
73821;BME280;62150;43.582;1.456;2023-03-01T07:46:25;100434.22;;;0.16;100.00
73821;BME280;62150;43.582;1.456;2023-03-01T07:48:52;100438.53;;;0.27;100.00
73821;BME280;62150;43.582;1.456;2023-03-01T07:51:20;100441.06;;;0.27;100.00
73821;BME280;62150;43.582;1.456;2023-03-01T07:53:47;100439.44;;;0.32;100.00
73821;BME280;62150;43.582;1.456;2023-03-01T07:56:17;100439.53;;;0.52;100.00
73821;BME280;62150;43.582;1.456;2023-03-01T07:58:46;100447.25;;;0.68;100.00
73821;BME280;62150;43.582;1.456;2023-03-01T08:01:14;100443.88;;;0.69;100.00
73821;BME280;62150;43.582;1.456;2023-03-01T08:03:43;100442.22;;;0.77;100.00
73821;BME280;62150;43.582;1.456;2023-03-01T08:06:12;100445.47;;;0.57;100.00
73821;BME280;62150;43.582;1.456;2023-03-01T08:08:40;100444.69;;;0.63;100.00
73821;BME280;62150;43.582;1.456;2023-03-01T08:11:10;100436.22;;;0.58;100.00
73821;BME280;62150;43.582;1.456;2023-03-01T08:13:39;100438.69;;;0.52;100.00
73821;BME280;62150;43.582;1.456;2023-03-01T08:16:09;100441.25;;;0.56;100.00
73821;BME280;62150;43.582;1.456;2023-03-01T08:18:37;100433.75;;;0.65;100.00
73821;BME280;62150;43.582;1.456;2023-03-01T08:21:06;100433.03;;;0.94;100.00
73821;BME280;62150;43.582;1.456;2023-03-01T08:23:35;100428.78;;;0.85;100.00
73821;BME280;62150;43.582;1.456;2023-03-01T08:26:07;100429.72;;;1.01;100.00
73821;BME280;62150;43.582;1.456;2023-03-01T08:28:34;100437.25;;;0.95;100.00
73821;BME280;62150;43.582;1.456;2023-03-01T08:31:04;100427.19;;;1.13;100.00
73821;BME280;62150;43.582;1.456;2023-03-01T08:33:39;100428.03;;;1.12;100.00
73821;BME280;62150;43.582;1.456;2023-03-01T08:36:07;100425.50;;;1.12;100.00
73821;BME280;62150;43.582;1.456;2023-03-01T08:38:35;100430.69;;;1.37;100.00
73821;BME280;62150;43.582;1.456;2023-03-01T08:41:04;100423.81;;;1.11;100.00
73821;BME280;62150;43.582;1.456;2023-03-01T08:43:32;100426.25;;;0.88;100.00
73821;BME280;62150;43.582;1.456;2023-03-01T08:45:59;100429.81;;;1.33;100.00
73821;BME280;62150;43.582;1.456;2023-03-01T08:48:29;100412.91;;;1.20;100.00
73821;BME280;62150;43.582;1.456;2023-03-01T08:50:57;100413.84;;;1.66;100.00
73821;BME280;62150;43.582;1.456;2023-03-01T08:53:33;100416.38;;;1.63;100.00
73821;BME280;62150;43.582;1.456;2023-03-01T08:56:01;100406.25;;;1.75;100.00
73821;BME280;62150;43.582;1.456;2023-03-01T08:58:29;100407.09;;;1.86;100.00
73821;BME280;62150;43.582;1.456;2023-03-01T09:00:57;100405.41;;;1.59;100.00
73821;BME280;62150;43.582;1.456;2023-03-01T09:03:25;100411.34;;;1.87;100.00
73821;BME280;62150;43.582;1.456;2023-03-01T09:05:54;100413.84;;;1.75;100.00
73821;BME280;62150;43.582;1.456;2023-03-01T09:08:26;100399.47;;;1.57;100.00
73821;BME280;62150;43.582;1.456;2023-03-01T09:10:54;100410.47;;;1.85;100.00
73821;BME280;62150;43.582;1.456;2023-03-01T09:13:22;100406.25;;;1.90;100.00
73821;BME280;62150;43.582;1.456;2023-03-01T09:15:50;100411.34;;;1.92;100.00
73821;BME280;62150;43.582;1.456;2023-03-01T09:18:18;100406.28;;;2.04;100.00
73821;BME280;62150;43.582;1.456;2023-03-01T09:20:46;100404.56;;;2.18;100.00
73821;BME280;62150;43.582;1.456;2023-03-01T09:23:14;100399.50;;;2.29;100.00
73821;BME280;62150;43.582;1.456;2023-03-01T09:25:42;100398.59;;;2.45;100.00
73821;BME280;62150;43.582;1.456;2023-03-01T09:28:09;100399.44;;;2.44;100.00
73821;BME280;62150;43.582;1.456;2023-03-01T09:30:37;100394.38;;;2.49;100.00
73821;BME280;62150;43.582;1.456;2023-03-01T09:33:04;100389.28;;;2.50;100.00
73821;BME280;62150;43.582;1.456;2023-03-01T09:35:32;100384.22;;;2.50;100.00
73821;BME280;62150;43.582;1.456;2023-03-01T09:37:59;100377.44;;;2.61;100.00
73821;BME280;62150;43.582;1.456;2023-03-01T09:40:29;100371.44;;;2.87;100.00
73821;BME280;62150;43.582;1.456;2023-03-01T09:43:05;100361.22;;;3.02;100.00
73821;BME280;62150;43.582;1.456;2023-03-01T09:45:40;100365.47;;;2.98;97.07
73821;BME280;62150;43.582;1.456;2023-03-01T09:48:14;100352.78;;;3.00;96.19
73821;BME280;62150;43.582;1.456;2023-03-01T09:50:44;100344.16;;;3.25;97.57
73821;BME280;62150;43.582;1.456;2023-03-01T09:53:15;100347.72;;;2.91;97.08
73821;BME280;62150;43.582;1.456;2023-03-01T09:55:48;100341.53;;;3.41;94.61
73821;BME280;62150;43.582;1.456;2023-03-01T09:58:47;100334.66;;;3.50;89.45
73821;BME280;62150;43.582;1.456;2023-03-01T10:01:29;100333.72;;;3.66;84.21
73821;BME280;62150;43.582;1.456;2023-03-01T10:04:26;100329.59;;;3.47;84.78
73821;BME280;62150;43.582;1.456;2023-03-01T10:07:12;100320.28;;;3.51;89.32
73821;BME280;62150;43.582;1.456;2023-03-01T10:09:45;100321.63;;;3.91;82.85
73821;BME280;62150;43.582;1.456;2023-03-01T10:12:18;100319.16;;;3.82;78.01
73821;BME280;62150;43.582;1.456;2023-03-01T10:14:53;100315.78;;;3.82;78.20
73821;BME280;62150;43.582;1.456;2023-03-01T10:17:27;100317.53;;;3.78;79.76
73821;BME280;62150;43.582;1.456;2023-03-01T10:20:06;100314.56;;;4.21;78.03
73821;BME280;62150;43.582;1.456;2023-03-01T10:22:38;100317.88;;;4.29;76.09
73821;BME280;62150;43.582;1.456;2023-03-01T10:25:05;100310.78;;;4.55;75.69
73821;BME280;62150;43.582;1.456;2023-03-01T10:27:41;100319.75;;;4.12;71.69
73821;BME280;62150;43.582;1.456;2023-03-01T10:30:16;100307.63;;;4.36;71.08
73821;BME280;62150;43.582;1.456;2023-03-01T10:32:48;100304.34;;;4.27;69.87
73821;BME280;62150;43.582;1.456;2023-03-01T10:35:18;100296.50;;;4.47;67.51
73821;BME280;62150;43.582;1.456;2023-03-01T10:38:02;100299.47;;;4.81;64.11
73821;BME280;62150;43.582;1.456;2023-03-01T10:40:30;100296.28;;;4.62;64.54
73821;BME280;62150;43.582;1.456;2023-03-01T10:43:01;100298.97;;;4.51;64.45
73821;BME280;62150;43.582;1.456;2023-03-01T10:45:34;100289.38;;;4.73;64.01
73821;BME280;62150;43.582;1.456;2023-03-01T10:48:14;100288.69;;;4.60;61.63
73821;BME280;62150;43.582;1.456;2023-03-01T10:50:44;100281.69;;;4.78;60.28
73821;BME280;62150;43.582;1.456;2023-03-01T10:53:24;100277.81;;;5.12;58.99
73821;BME280;62150;43.582;1.456;2023-03-01T10:56:01;100286.97;;;5.22;60.42
73821;BME280;62150;43.582;1.456;2023-03-01T10:58:33;100279.13;;;4.78;58.86
73821;BME280;62150;43.582;1.456;2023-03-01T11:01:03;100276.56;;;4.81;59.45
73821;BME280;62150;43.582;1.456;2023-03-01T11:03:32;100269.78;;;4.80;58.25
73821;BME280;62150;43.582;1.456;2023-03-01T11:06:06;100271.16;;;5.02;58.62
73821;BME280;62150;43.582;1.456;2023-03-01T11:08:47;100268.59;;;5.02;59.01
73821;BME280;62150;43.582;1.456;2023-03-01T11:11:29;100265.06;;;5.12;58.95
73821;BME280;62150;43.582;1.456;2023-03-01T11:14:03;100257.84;;;4.85;57.77
73821;BME280;62150;43.582;1.456;2023-03-01T11:16:34;100261.47;;;5.25;55.44
73821;BME280;62150;43.582;1.456;2023-03-01T11:19:19;100247.28;;;5.09;54.72
73821;BME280;62150;43.582;1.456;2023-03-01T11:21:59;100246.00;;;5.36;54.62
73821;BME280;62150;43.582;1.456;2023-03-01T11:24:34;100246.81;;;5.39;54.53
73821;BME280;62150;43.582;1.456;2023-03-01T11:27:08;100238.91;;;5.55;55.16
73821;BME280;62150;43.582;1.456;2023-03-01T11:29:45;100235.00;;;5.83;54.57
73821;BME280;62150;43.582;1.456;2023-03-01T11:32:17;100228.84;;;5.49;55.88
73821;BME280;62150;43.582;1.456;2023-03-01T11:34:50;100224.53;;;5.52;56.85
73821;BME280;62150;43.582;1.456;2023-03-01T11:37:30;100227.84;;;5.56;54.71
73821;BME280;62150;43.582;1.456;2023-03-01T11:40:05;100219.25;;;5.61;53.84
73821;BME280;62150;43.582;1.456;2023-03-01T11:42:48;100210.53;;;5.75;52.76
73821;BME280;62150;43.582;1.456;2023-03-01T11:45:23;100199.56;;;6.16;51.94
73821;BME280;62150;43.582;1.456;2023-03-01T11:48:06;100202.59;;;5.44;51.42
73821;BME280;62150;43.582;1.456;2023-03-01T11:50:39;100198.00;;;5.61;50.64
73821;BME280;62150;43.582;1.456;2023-03-01T11:53:26;100197.75;;;5.76;50.66
73821;BME280;62150;43.582;1.456;2023-03-01T11:56:06;100176.16;;;5.95;50.00
73821;BME280;62150;43.582;1.456;2023-03-01T11:58:48;100182.97;;;5.95;50.19
73821;BME280;62150;43.582;1.456;2023-03-01T12:01:30;100165.41;;;5.80;49.99
73821;BME280;62150;43.582;1.456;2023-03-01T12:04:28;100172.44;;;6.12;49.09
73821;BME280;62150;43.582;1.456;2023-03-01T12:07:01;100177.81;;;5.52;49.07
73821;BME280;62150;43.582;1.456;2023-03-01T12:09:54;100163.91;;;6.13;49.27
73821;BME280;62150;43.582;1.456;2023-03-01T12:12:36;100150.81;;;5.86;49.11
73821;BME280;62150;43.582;1.456;2023-03-01T12:15:37;100155.28;;;6.20;47.99
73821;BME280;62150;43.582;1.456;2023-03-01T12:21:09;100139.50;;;6.41;48.39
73821;BME280;62150;43.582;1.456;2023-03-01T12:24:15;100136.66;;;6.15;48.00
73821;BME280;62150;43.582;1.456;2023-03-01T12:26:54;100132.75;;;6.38;46.84
73821;BME280;62150;43.582;1.456;2023-03-01T12:29:27;100137.47;;;6.17;46.78
73821;BME280;62150;43.582;1.456;2023-03-01T12:37:54;100126.09;;;6.68;47.43
73821;BME280;62150;43.582;1.456;2023-03-01T12:40:42;100125.47;;;6.94;47.30
73821;BME280;62150;43.582;1.456;2023-03-01T12:43:26;100124.34;;;6.70;46.01
73821;BME280;62150;43.582;1.456;2023-03-01T12:46:06;100116.81;;;6.64;46.75
73821;BME280;62150;43.582;1.456;2023-03-01T12:48:44;100114.50;;;6.91;46.64
73821;BME280;62150;43.582;1.456;2023-03-01T12:51:18;100116.66;;;7.06;46.31
73821;BME280;62150;43.582;1.456;2023-03-01T12:53:49;100106.63;;;6.98;45.86
73821;BME280;62150;43.582;1.456;2023-03-01T12:56:21;100106.41;;;7.40;44.91
73821;BME280;62150;43.582;1.456;2023-03-01T12:58:57;100104.47;;;7.50;45.20
73821;BME280;62150;43.582;1.456;2023-03-01T13:01:36;100100.78;;;6.95;45.60
73821;BME280;62150;43.582;1.456;2023-03-01T13:04:21;100100.59;;;7.02;45.21
73821;BME280;62150;43.582;1.456;2023-03-01T13:07:02;100095.16;;;7.47;45.10
73821;BME280;62150;43.582;1.456;2023-03-01T13:09:37;100102.44;;;6.96;45.04
73821;BME280;62150;43.582;1.456;2023-03-01T13:15:29;100097.84;;;7.10;44.92
73821;BME280;62150;43.582;1.456;2023-03-01T13:17:58;100090.94;;;7.14;44.54
73821;BME280;62150;43.582;1.456;2023-03-01T13:20:30;100093.91;;;6.97;43.81
73821;BME280;62150;43.582;1.456;2023-03-01T13:23:06;100084.50;;;7.31;43.88
73821;BME280;62150;43.582;1.456;2023-03-01T13:25:34;100083.78;;;7.59;43.84
73821;BME280;62150;43.582;1.456;2023-03-01T13:28:53;100074.34;;;7.61;43.98
73821;BME280;62150;43.582;1.456;2023-03-01T13:34:44;100082.47;;;8.03;42.88
73821;BME280;62150;43.582;1.456;2023-03-01T13:37:21;100071.22;;;8.08;43.43
73821;BME280;62150;43.582;1.456;2023-03-01T13:39:50;100067.63;;;7.57;43.45
73821;BME280;62150;43.582;1.456;2023-03-01T13:42:39;100058.38;;;7.82;43.29
73821;BME280;62150;43.582;1.456;2023-03-01T13:45:31;100063.41;;;7.56;43.29
73821;BME280;62150;43.582;1.456;2023-03-01T13:48:03;100061.00;;;7.50;43.39
73821;BME280;62150;43.582;1.456;2023-03-01T13:50:36;100063.56;;;8.36;43.14
73821;BME280;62150;43.582;1.456;2023-03-01T13:53:07;100058.06;;;8.21;42.29
73821;BME280;62150;43.582;1.456;2023-03-01T13:55:43;100064.81;;;8.51;42.57
73821;BME280;62150;43.582;1.456;2023-03-01T13:58:23;100055.56;;;7.91;42.67
73821;BME280;62150;43.582;1.456;2023-03-01T14:00:57;100050.84;;;8.05;42.15
73821;BME280;62150;43.582;1.456;2023-03-01T14:03:26;100049.06;;;7.80;41.98
73821;BME280;62150;43.582;1.456;2023-03-01T14:06:07;100034.75;;;9.07;41.01
73821;BME280;62150;43.582;1.456;2023-03-01T14:08:36;100042.47;;;8.56;41.38
73821;BME280;62150;43.582;1.456;2023-03-01T14:11:30;100049.13;;;8.06;41.65
73821;BME280;62150;43.582;1.456;2023-03-01T14:14:20;100051.84;;;8.29;42.05
73821;BME280;62150;43.582;1.456;2023-03-01T14:16:54;100054.66;;;8.20;42.65
73821;BME280;62150;43.582;1.456;2023-03-01T14:19:26;100053.50;;;8.02;42.70
73821;BME280;62150;43.582;1.456;2023-03-01T14:22:03;100049.88;;;8.37;42.41
73821;BME280;62150;43.582;1.456;2023-03-01T14:24:35;100041.69;;;8.26;43.20
73821;BME280;62150;43.582;1.456;2023-03-01T14:27:11;100038.06;;;8.86;42.99
73821;BME280;62150;43.582;1.456;2023-03-01T14:29:40;100037.88;;;8.12;43.61
73821;BME280;62150;43.582;1.456;2023-03-01T14:32:15;100034.78;;;8.56;43.52
73821;BME280;62150;43.582;1.456;2023-03-01T14:34:46;100028.13;;;8.77;42.90
73821;BME280;62150;43.582;1.456;2023-03-01T14:37:22;100034.88;;;8.53;44.00
73821;BME280;62150;43.582;1.456;2023-03-01T14:39:50;100042.91;;;8.43;44.87
73821;BME280;62150;43.582;1.456;2023-03-01T14:42:20;100035.91;;;8.48;45.26
73821;BME280;62150;43.582;1.456;2023-03-01T14:44:50;100029.84;;;8.50;43.47
73821;BME280;62150;43.582;1.456;2023-03-01T14:47:28;100043.84;;;8.40;43.79
73821;BME280;62150;43.582;1.456;2023-03-01T14:50:00;100030.97;;;8.94;43.54
73821;BME280;62150;43.582;1.456;2023-03-01T14:52:34;100038.84;;;8.63;43.88
73821;BME280;62150;43.582;1.456;2023-03-01T14:55:05;100033.44;;;9.44;43.05
73821;BME280;62150;43.582;1.456;2023-03-01T14:57:35;100031.81;;;8.42;43.33
73821;BME280;62150;43.582;1.456;2023-03-01T15:00:05;100034.56;;;8.89;43.63
73821;BME280;62150;43.582;1.456;2023-03-01T15:02:35;100041.38;;;8.63;43.31
73821;BME280;62150;43.582;1.456;2023-03-01T15:05:03;100026.75;;;9.17;43.11
73821;BME280;62150;43.582;1.456;2023-03-01T15:07:35;100031.38;;;8.29;44.36
73821;BME280;62150;43.582;1.456;2023-03-01T15:10:05;100030.72;;;9.25;43.46
73821;BME280;62150;43.582;1.456;2023-03-01T15:12:40;100024.19;;;9.40;42.53
73821;BME280;62150;43.582;1.456;2023-03-01T15:15:22;100029.25;;;8.68;43.18
73821;BME280;62150;43.582;1.456;2023-03-01T15:17:53;100029.69;;;9.31;42.60
73821;BME280;62150;43.582;1.456;2023-03-01T15:20:26;100016.47;;;9.65;42.55
73821;BME280;62150;43.582;1.456;2023-03-01T15:22:56;100016.81;;;9.78;42.78
73821;BME280;62150;43.582;1.456;2023-03-01T15:25:26;100027.56;;;8.67;43.10
73821;BME280;62150;43.582;1.456;2023-03-01T15:27:57;100037.72;;;8.70;44.01
73821;BME280;62150;43.582;1.456;2023-03-01T15:30:29;100027.91;;;9.08;42.75
73821;BME280;62150;43.582;1.456;2023-03-01T15:33:16;100028.25;;;8.99;42.83
73821;BME280;62150;43.582;1.456;2023-03-01T15:35:47;100038.09;;;8.60;43.24
73821;BME280;62150;43.582;1.456;2023-03-01T15:38:50;100040.47;;;8.91;43.17
73821;BME280;62150;43.582;1.456;2023-03-01T15:41:25;100032.25;;;9.31;42.11
73821;BME280;62150;43.582;1.456;2023-03-01T15:43:54;100040.97;;;9.49;42.70
73821;BME280;62150;43.582;1.456;2023-03-01T15:46:26;100028.53;;;9.15;42.85
73821;BME280;62150;43.582;1.456;2023-03-01T15:48:56;100026.81;;;9.38;41.49
73821;BME280;62150;43.582;1.456;2023-03-01T15:51:32;100040.75;;;8.82;42.89
73821;BME280;62150;43.582;1.456;2023-03-01T15:54:03;100040.38;;;8.41;43.66
73821;BME280;62150;43.582;1.456;2023-03-01T15:56:34;100040.97;;;8.76;42.95
73821;BME280;62150;43.582;1.456;2023-03-01T15:59:03;100035.78;;;8.77;43.43
73821;BME280;62150;43.582;1.456;2023-03-01T16:01:33;100037.06;;;8.90;42.87
73821;BME280;62150;43.582;1.456;2023-03-01T16:04:01;100046.25;;;8.17;43.44
73821;BME280;62150;43.582;1.456;2023-03-01T16:06:28;100038.91;;;8.87;43.67
73821;BME280;62150;43.582;1.456;2023-03-01T16:08:56;100049.34;;;8.81;43.57
73821;BME280;62150;43.582;1.456;2023-03-01T16:11:23;100039.94;;;8.81;42.96
73821;BME280;62150;43.582;1.456;2023-03-01T16:13:51;100046.88;;;9.27;43.17
73821;BME280;62150;43.582;1.456;2023-03-01T16:16:20;100041.53;;;9.08;43.15
73821;BME280;62150;43.582;1.456;2023-03-01T16:18:48;100042.03;;;9.20;43.02
73821;BME280;62150;43.582;1.456;2023-03-01T16:21:20;100046.34;;;9.66;42.19
73821;BME280;62150;43.582;1.456;2023-03-01T16:23:48;100049.06;;;8.63;42.85
73821;BME280;62150;43.582;1.456;2023-03-01T16:26:16;100046.81;;;8.54;43.19
73821;BME280;62150;43.582;1.456;2023-03-01T16:28:45;100047.78;;;8.50;43.44
73821;BME280;62150;43.582;1.456;2023-03-01T16:31:16;100047.09;;;8.45;43.98
73821;BME280;62150;43.582;1.456;2023-03-01T16:33:46;100048.75;;;8.18;44.65
73821;BME280;62150;43.582;1.456;2023-03-01T16:36:17;100049.59;;;8.47;43.62
73821;BME280;62150;43.582;1.456;2023-03-01T16:38:45;100053.78;;;8.49;44.10
73821;BME280;62150;43.582;1.456;2023-03-01T16:41:15;100053.88;;;8.72;44.60
73821;BME280;62150;43.582;1.456;2023-03-01T16:43:44;100046.97;;;8.74;43.48
73821;BME280;62150;43.582;1.456;2023-03-01T16:46:13;100049.88;;;8.37;44.15
73821;BME280;62150;43.582;1.456;2023-03-01T16:48:41;100051.78;;;8.31;44.82
73821;BME280;62150;43.582;1.456;2023-03-01T16:51:10;100045.63;;;8.64;44.46
73821;BME280;62150;43.582;1.456;2023-03-01T16:53:38;100050.25;;;8.25;45.15
73821;BME280;62150;43.582;1.456;2023-03-01T16:56:09;100049.47;;;7.95;45.34
73821;BME280;62150;43.582;1.456;2023-03-01T16:58:37;100053.50;;;8.58;45.35
73821;BME280;62150;43.582;1.456;2023-03-01T17:01:07;100058.69;;;7.71;45.71
73821;BME280;62150;43.582;1.456;2023-03-01T17:03:35;100065.22;;;8.10;45.53
73821;BME280;62150;43.582;1.456;2023-03-01T17:06:04;100069.59;;;8.06;46.10
73821;BME280;62150;43.582;1.456;2023-03-01T17:08:33;100063.75;;;7.73;46.47
73821;BME280;62150;43.582;1.456;2023-03-01T17:11:08;100073.47;;;7.29;47.44
73821;BME280;62150;43.582;1.456;2023-03-01T17:13:37;100065.59;;;7.97;46.83
73821;BME280;62150;43.582;1.456;2023-03-01T17:16:06;100073.50;;;7.90;46.07
73821;BME280;62150;43.582;1.456;2023-03-01T17:18:34;100082.44;;;7.13;47.80
73821;BME280;62150;43.582;1.456;2023-03-01T17:21:02;100076.44;;;7.14;47.81
73821;BME280;62150;43.582;1.456;2023-03-01T17:23:32;100085.06;;;7.10;48.27
73821;BME280;62150;43.582;1.456;2023-03-01T17:26:00;100083.19;;;7.17;48.50
73821;BME280;62150;43.582;1.456;2023-03-01T17:28:30;100085.56;;;7.24;48.69
73821;BME280;62150;43.582;1.456;2023-03-01T17:30:59;100087.81;;;7.02;49.38
73821;BME280;62150;43.582;1.456;2023-03-01T17:33:27;100086.47;;;6.89;50.19
73821;BME280;62150;43.582;1.456;2023-03-01T17:35:56;100085.34;;;6.99;50.32
73821;BME280;62150;43.582;1.456;2023-03-01T17:38:24;100091.66;;;6.86;50.74
73821;BME280;62150;43.582;1.456;2023-03-01T17:40:53;100091.84;;;6.77;51.45
73821;BME280;62150;43.582;1.456;2023-03-01T17:43:20;100096.66;;;6.55;52.71
73821;BME280;62150;43.582;1.456;2023-03-01T17:45:48;100094.97;;;6.54;52.80
73821;BME280;62150;43.582;1.456;2023-03-01T17:48:17;100100.84;;;6.58;52.73
73821;BME280;62150;43.582;1.456;2023-03-01T17:50:45;100097.50;;;6.56;53.06
73821;BME280;62150;43.582;1.456;2023-03-01T17:53:13;100098.31;;;6.56;52.75
73821;BME280;62150;43.582;1.456;2023-03-01T17:55:42;100102.28;;;6.68;53.54
73821;BME280;62150;43.582;1.456;2023-03-01T17:58:13;100096.91;;;6.43;53.94
73821;BME280;62150;43.582;1.456;2023-03-01T18:00:42;100100.16;;;6.51;54.29
73821;BME280;62150;43.582;1.456;2023-03-01T18:03:10;100094.88;;;6.22;55.06
73821;BME280;62150;43.582;1.456;2023-03-01T18:05:37;100109.78;;;6.38;55.12
73821;BME280;62150;43.582;1.456;2023-03-01T18:08:05;100113.41;;;6.28;56.47
73821;BME280;62150;43.582;1.456;2023-03-01T18:10:33;100116.84;;;6.26;60.17
73821;BME280;62150;43.582;1.456;2023-03-01T18:13:02;100115.38;;;6.17;57.39
73821;BME280;62150;43.582;1.456;2023-03-01T18:15:31;100122.69;;;6.31;57.60
73821;BME280;62150;43.582;1.456;2023-03-01T18:17:59;100127.56;;;6.03;58.05
73821;BME280;62150;43.582;1.456;2023-03-01T18:20:26;100128.41;;;6.03;58.65
73821;BME280;62150;43.582;1.456;2023-03-01T18:22:55;100126.97;;;5.90;60.09
73821;BME280;62150;43.582;1.456;2023-03-01T18:25:23;100126.81;;;5.98;58.75
73821;BME280;62150;43.582;1.456;2023-03-01T18:27:50;100124.72;;;5.73;58.63
73821;BME280;62150;43.582;1.456;2023-03-01T18:30:18;100127.72;;;5.95;59.13
73821;BME280;62150;43.582;1.456;2023-03-01T18:32:47;100125.41;;;5.83;59.96
73821;BME280;62150;43.582;1.456;2023-03-01T18:35:21;100132.22;;;5.81;59.24
73821;BME280;62150;43.582;1.456;2023-03-01T18:37:49;100138.34;;;5.72;59.88
73821;BME280;62150;43.582;1.456;2023-03-01T18:40:16;100137.47;;;5.73;61.64
73821;BME280;62150;43.582;1.456;2023-03-01T18:42:44;100132.47;;;5.69;60.85
73821;BME280;62150;43.582;1.456;2023-03-01T18:45:12;100136.56;;;5.76;60.52
73821;BME280;62150;43.582;1.456;2023-03-01T18:47:42;100139.41;;;5.61;59.66
73821;BME280;62150;43.582;1.456;2023-03-01T18:50:11;100151.06;;;5.74;60.08
73821;BME280;62150;43.582;1.456;2023-03-01T18:52:41;100159.88;;;5.56;60.93
73821;BME280;62150;43.582;1.456;2023-03-01T18:55:10;100158.00;;;5.66;60.43
73821;BME280;62150;43.582;1.456;2023-03-01T18:57:37;100160.84;;;5.51;60.74
73821;BME280;62150;43.582;1.456;2023-03-01T19:00:06;100155.72;;;5.52;61.78
73821;BME280;62150;43.582;1.456;2023-03-01T19:02:33;100161.66;;;5.53;62.28
73821;BME280;62150;43.582;1.456;2023-03-01T19:05:01;100159.16;;;5.50;62.00
73821;BME280;62150;43.582;1.456;2023-03-01T19:07:30;100166.88;;;5.47;63.05
73821;BME280;62150;43.582;1.456;2023-03-01T19:09:57;100175.69;;;5.26;64.27
73821;BME280;62150;43.582;1.456;2023-03-01T19:12:25;100173.94;;;5.29;64.42
73821;BME280;62150;43.582;1.456;2023-03-01T19:14:53;100168.81;;;5.32;64.80
73821;BME280;62150;43.582;1.456;2023-03-01T19:17:21;100162.59;;;5.49;64.52
73821;BME280;62150;43.582;1.456;2023-03-01T19:19:50;100162.06;;;5.28;64.99
73821;BME280;62150;43.582;1.456;2023-03-01T19:22:17;100170.66;;;5.23;65.60
73821;BME280;62150;43.582;1.456;2023-03-01T19:24:46;100159.03;;;5.08;67.51
73821;BME280;62150;43.582;1.456;2023-03-01T19:27:13;100164.94;;;5.10;68.08
73821;BME280;62150;43.582;1.456;2023-03-01T19:29:41;100160.72;;;5.09;69.05
73821;BME280;62150;43.582;1.456;2023-03-01T19:32:11;100163.25;;;5.09;69.00
73821;BME280;62150;43.582;1.456;2023-03-01T19:34:39;100160.09;;;4.93;69.98
73821;BME280;62150;43.582;1.456;2023-03-01T19:37:07;100160.16;;;4.90;70.92
73821;BME280;62150;43.582;1.456;2023-03-01T19:39:36;100163.47;;;4.95;70.29
73821;BME280;62150;43.582;1.456;2023-03-01T19:42:04;100163.69;;;4.83;71.15
73821;BME280;62150;43.582;1.456;2023-03-01T19:44:32;100166.97;;;4.88;72.14
73821;BME280;62150;43.582;1.456;2023-03-01T19:46:59;100162.94;;;4.75;72.86
73821;BME280;62150;43.582;1.456;2023-03-01T19:49:27;100167.97;;;4.80;73.32
73821;BME280;62150;43.582;1.456;2023-03-01T19:51:55;100168.69;;;4.86;72.68
73821;BME280;62150;43.582;1.456;2023-03-01T19:54:22;100171.34;;;4.82;74.59
73821;BME280;62150;43.582;1.456;2023-03-01T19:56:50;100174.81;;;4.76;74.24
73821;BME280;62150;43.582;1.456;2023-03-01T19:59:19;100174.03;;;4.71;75.30
73821;BME280;62150;43.582;1.456;2023-03-01T20:01:49;100177.56;;;4.62;76.15
73821;BME280;62150;43.582;1.456;2023-03-01T20:04:16;100172.50;;;4.59;76.38
73821;BME280;62150;43.582;1.456;2023-03-01T20:06:44;100169.84;;;4.67;77.74